Time;durP1;ratioP1;P1;durP2;ratioP2;P2;SDS_P1;SDS_P2;PMS_P1;PMS_P2;Temp;Humidity;BMP_temperature;BMP_pressure;BME280_temperature;BME280_humidity;BME280_pressure;Samples;Min_cycle;Max_cycle;Signal;HPM_P1;HPM_P2
2023/08/30 00:02:23;;;;;;;9.02;7.35;;;19.00;56.70;;;;;;4962020;28;20051;-52
2023/08/30 00:04:50;;;;;;;14.50;8.30;;;19.10;56.80;;;;;;4960485;28;20058;-53
2023/08/30 00:07:18;;;;;;;10.45;7.72;;;19.00;56.70;;;;;;4960914;28;20054;-56
2023/08/30 00:09:45;;;;;;;11.00;8.40;;;19.00;56.60;;;;;;4959279;28;20487;-50
2023/08/30 00:12:13;;;;;;;8.15;7.32;;;19.00;56.60;;;;;;4962295;28;20047;-54
2023/08/30 00:14:41;;;;;;;8.02;6.85;;;19.00;56.70;;;;;;4961733;28;20070;-52
2023/08/30 00:17:08;;;;;;;10.07;6.18;;;19.00;56.70;;;;;;4961496;28;20054;-50
2023/08/30 00:19:36;;;;;;;6.85;5.90;;;19.00;56.80;;;;;;4957797;28;20411;-55
2023/08/30 00:22:03;;;;;;;9.82;5.90;;;19.00;56.80;;;;;;4962424;28;20074;-55
2023/08/30 00:24:31;;;;;;;6.95;5.35;;;19.00;56.80;;;;;;4962799;28;20058;-52
2023/08/30 00:26:58;;;;;;;8.48;5.65;;;19.00;56.90;;;;;;4962488;28;20063;-52
2023/08/30 00:29:26;;;;;;;8.43;6.15;;;19.00;56.90;;;;;;4958208;28;20055;-54
2023/08/30 00:31:54;;;;;;;7.05;5.82;;;19.00;56.90;;;;;;4959757;28;20051;-53
2023/08/30 00:34:21;;;;;;;8.52;6.22;;;19.00;57.00;;;;;;4960989;28;20069;-50
2023/08/30 00:36:48;;;;;;;6.68;5.50;;;18.90;56.90;;;;;;4958493;28;20415;-53
2023/08/30 00:39:15;;;;;;;7.10;6.13;;;18.90;56.90;;;;;;4960798;28;20520;-52
2023/08/30 00:41:42;;;;;;;7.00;5.68;;;19.00;56.90;;;;;;4960796;28;20062;-52
2023/08/30 00:44:10;;;;;;;9.30;5.95;;;19.00;56.90;;;;;;4961565;28;20054;-52
2023/08/30 00:46:39;;;;;;;14.52;8.60;;;18.90;56.80;;;;;;4961676;28;20487;-56
2023/08/30 00:49:07;;;;;;;11.85;8.52;;;18.90;56.70;;;;;;4960458;28;20061;-49
2023/08/30 00:51:34;;;;;;;11.50;9.40;;;18.80;56.60;;;;;;4960998;28;20051;-51
2023/08/30 00:54:02;;;;;;;12.88;9.98;;;18.80;56.70;;;;;;4962385;28;20380;-53
2023/08/30 00:56:30;;;;;;;11.63;9.38;;;18.80;56.70;;;;;;4958036;28;20059;-49
2023/08/30 00:58:58;;;;;;;9.30;6.82;;;18.80;56.80;;;;;;4960786;28;20059;-52
2023/08/30 01:01:25;;;;;;;8.25;6.07;;;18.80;56.90;;;;;;4961557;28;20058;-56
2023/08/30 01:03:54;;;;;;;11.02;7.30;;;18.80;56.90;;;;;;4977352;23;20050;-82
2023/08/30 01:06:21;;;;;;;7.80;6.22;;;18.70;57.00;;;;;;4974559;28;20446;-83
2023/08/30 01:08:48;;;;;;;8.13;6.60;;;18.70;57.00;;;;;;4979142;28;20066;-83
2023/08/30 01:11:24;;;;;;;10.52;8.30;;;18.70;57.00;;;;;;4977950;28;20149;-82
2023/08/30 01:13:57;;;;;;;9.40;7.75;;;18.70;57.10;;;;;;4979193;28;20063;-83
2023/08/30 01:16:25;;;;;;;12.27;8.95;;;18.70;57.00;;;;;;4973782;28;20054;-83
2023/08/30 01:18:56;;;;;;;11.27;8.13;;;18.60;56.90;;;;;;4977304;28;20059;-82
2023/08/30 01:21:33;;;;;;;12.20;8.55;;;18.60;56.90;;;;;;4974522;28;20050;-82
2023/08/30 01:24:03;;;;;;;9.93;8.20;;;18.60;57.00;;;;;;4977484;28;20421;-82
2023/08/30 01:26:40;;;;;;;12.10;8.80;;;18.60;57.10;;;;;;4975844;28;20418;-82
2023/08/30 01:29:11;;;;;;;10.00;8.60;;;18.50;57.10;;;;;;4978682;28;20494;-83
2023/08/30 01:31:41;;;;;;;11.98;9.32;;;18.50;57.20;;;;;;4977196;28;20421;-82
2023/08/30 01:34:08;;;;;;;11.25;9.15;;;18.50;57.10;;;;;;4978255;28;20375;-83
2023/08/30 01:36:37;;;;;;;10.10;8.65;;;18.50;57.10;;;;;;4975813;28;20062;-82
2023/08/30 01:39:05;;;;;;;10.25;8.43;;;18.50;57.10;;;;;;4975103;28;20058;-82
2023/08/30 01:41:35;;;;;;;10.02;8.52;;;18.50;57.20;;;;;;4975770;28;20050;-82
2023/08/30 01:44:04;;;;;;;10.55;8.25;;;18.50;57.30;;;;;;4979153;28;20073;-83
2023/08/30 01:46:34;;;;;;;11.85;9.10;;;18.50;57.40;;;;;;4978505;28;20061;-81
2023/08/30 01:49:03;;;;;;;11.98;9.88;;;18.50;57.50;;;;;;4975324;28;20417;-82
2023/08/30 01:51:32;;;;;;;11.07;9.07;;;18.40;57.50;;;;;;4976721;28;20054;-83
2023/08/30 01:53:59;;;;;;;11.55;8.68;;;18.40;57.50;;;;;;4979395;28;20058;-82
2023/08/30 01:56:26;;;;;;;10.88;8.05;;;18.40;57.50;;;;;;4977009;28;20081;-82
2023/08/30 01:58:54;;;;;;;10.35;8.07;;;18.40;57.50;;;;;;4978833;28;20426;-82
2023/08/30 02:01:21;;;;;;;9.80;7.60;;;18.40;57.50;;;;;;4977872;28;20490;-83
2023/08/30 02:03:50;;;;;;;8.60;7.22;;;18.40;57.40;;;;;;4978423;28;20047;-83
2023/08/30 02:06:23;;;;;;;12.85;8.68;;;18.40;57.50;;;;;;4976350;28;20050;-82
2023/08/30 02:08:56;;;;;;;10.90;8.15;;;18.40;57.60;;;;;;4972448;28;20057;-82
2023/08/30 02:11:27;;;;;;;9.63;8.57;;;18.40;57.60;;;;;;4975593;28;20058;-81
2023/08/30 02:13:58;;;;;;;9.13;7.28;;;18.40;57.60;;;;;;4976211;28;20529;-82
2023/08/30 02:16:27;;;;;;;10.15;8.07;;;18.40;57.60;;;;;;4972729;28;20065;-83
2023/08/30 02:18:56;;;;;;;8.07;7.13;;;18.40;57.70;;;;;;4977061;28;20058;-81
2023/08/30 02:21:23;;;;;;;10.55;7.78;;;18.40;57.70;;;;;;4982629;28;20775;-81
2023/08/30 02:23:51;;;;;;;9.13;7.53;;;18.40;57.70;;;;;;4976487;28;20046;-82
2023/08/30 02:26:20;;;;;;;9.20;7.78;;;18.40;57.80;;;;;;4976665;28;20058;-82
2023/08/30 02:28:47;;;;;;;8.68;7.60;;;18.40;57.80;;;;;;4980618;28;20510;-82
2023/08/30 02:31:15;;;;;;;9.35;7.03;;;18.40;57.80;;;;;;4977389;28;20093;-81
2023/08/30 02:33:42;;;;;;;9.98;8.05;;;18.40;57.80;;;;;;4980538;28;20050;-82
2023/08/30 02:36:11;;;;;;;9.45;7.55;;;18.40;57.70;;;;;;4978015;28;20046;-82
2023/08/30 02:38:38;;;;;;;9.63;7.53;;;18.40;57.80;;;;;;4981082;28;20050;-83
2023/08/30 02:41:06;;;;;;;10.55;7.93;;;18.40;57.80;;;;;;4980579;28;21614;-84
2023/08/30 02:43:33;;;;;;;9.68;7.85;;;18.40;57.80;;;;;;4979875;28;20042;-84
2023/08/30 02:46:03;;;;;;;8.77;7.20;;;18.40;57.80;;;;;;4980788;28;20066;-82
2023/08/30 02:48:30;;;;;;;9.13;7.28;;;18.40;57.80;;;;;;4982419;28;20054;-81
2023/08/30 02:50:58;;;;;;;9.13;7.75;;;18.40;57.80;;;;;;4977823;28;20399;-82
2023/08/30 02:53:27;;;;;;;9.32;7.28;;;18.40;57.80;;;;;;4978049;28;20705;-81
2023/08/30 02:55:55;;;;;;;8.13;6.32;;;18.40;57.80;;;;;;4978894;28;20058;-83
2023/08/30 02:58:23;;;;;;;7.68;6.00;;;18.30;57.70;;;;;;4973344;28;20134;-83
2023/08/30 03:00:50;;;;;;;8.23;6.75;;;18.40;57.70;;;;;;4978346;28;20061;-82
2023/08/30 03:03:17;;;;;;;8.50;6.82;;;18.30;57.70;;;;;;4982198;28;20050;-81
2023/08/30 03:05:45;;;;;;;9.57;6.68;;;18.30;57.70;;;;;;4977325;28;20903;-85
2023/08/30 03:08:12;;;;;;;8.30;6.55;;;18.30;57.80;;;;;;4982354;28;20054;-84
2023/08/30 03:10:41;;;;;;;12.50;7.05;;;18.30;57.80;;;;;;4980573;28;20066;-81
2023/08/30 03:13:08;;;;;;;8.15;6.50;;;18.30;57.80;;;;;;4986174;28;20050;-85
2023/08/30 03:15:35;;;;;;;8.30;6.65;;;18.30;57.80;;;;;;4977694;28;20058;-82
2023/08/30 03:18:03;;;;;;;7.63;6.10;;;18.30;57.90;;;;;;4981032;28;20061;-81
2023/08/30 03:20:30;;;;;;;10.40;7.07;;;18.30;57.90;;;;;;4982436;28;20073;-84
2023/08/30 03:22:58;;;;;;;7.35;6.03;;;18.30;57.90;;;;;;4983372;28;20058;-88
2023/08/30 03:25:29;;;;;;;6.53;5.70;;;18.30;57.90;;;;;;4982263;28;20051;-83
2023/08/30 03:27:58;;;;;;;8.52;6.80;;;18.30;57.90;;;;;;4989132;28;20066;-87
2023/08/30 03:30:25;;;;;;;8.45;5.88;;;18.30;57.90;;;;;;4986856;28;20053;-86
2023/08/30 03:32:52;;;;;;;7.90;6.05;;;18.30;57.90;;;;;;4977482;28;20065;-85
2023/08/30 03:35:21;;;;;;;9.98;7.78;;;18.30;57.90;;;;;;4984984;28;20046;-85
2023/08/30 03:37:48;;;;;;;12.23;7.38;;;18.30;57.80;;;;;;4980117;28;20061;-85
2023/08/30 03:40:16;;;;;;;12.77;8.20;;;18.30;57.80;;;;;;4980412;28;20050;-85
2023/08/30 03:42:44;;;;;;;7.97;6.63;;;18.20;57.80;;;;;;4980333;28;20058;-85
2023/08/30 03:45:12;;;;;;;7.32;6.25;;;18.20;57.80;;;;;;4977858;28;20054;-85
2023/08/30 03:47:40;;;;;;;8.25;6.55;;;18.10;57.90;;;;;;4978611;28;20597;-86
2023/08/30 03:50:09;;;;;;;6.82;6.13;;;18.10;58.00;;;;;;4979481;28;20058;-86
2023/08/30 03:52:36;;;;;;;7.35;5.95;;;18.10;58.20;;;;;;4980441;28;20065;-84
2023/08/30 03:55:03;;;;;;;7.72;5.85;;;18.00;58.30;;;;;;4978971;28;20502;-84
2023/08/30 03:57:31;;;;;;;8.48;6.38;;;18.00;58.30;;;;;;4980660;28;20399;-84
2023/08/30 03:59:58;;;;;;;8.43;6.70;;;18.00;58.40;;;;;;4979039;28;20065;-87
2023/08/30 04:02:27;;;;;;;7.60;6.80;;;18.00;58.40;;;;;;4981748;28;20050;-84
2023/08/30 04:04:54;;;;;;;10.75;7.53;;;18.00;58.50;;;;;;4954922;28;20065;-85
2023/08/30 04:07:21;;;;;;;8.38;6.85;;;18.00;58.50;;;;;;4954152;28;20054;-84
2023/08/30 04:09:49;;;;;;;9.82;6.82;;;18.00;58.90;;;;;;4959934;28;20054;-87
2023/08/30 04:12:16;;;;;;;9.75;7.32;;;18.00;58.50;;;;;;4957528;28;20057;-85
2023/08/30 04:14:43;;;;;;;9.85;7.28;;;18.00;58.50;;;;;;4957851;28;20055;-85
2023/08/30 04:17:11;;;;;;;9.32;7.45;;;18.00;58.50;;;;;;4956318;28;20494;-85
2023/08/30 04:19:39;;;;;;;9.88;7.18;;;18.00;58.50;;;;;;4959129;28;20051;-86
2023/08/30 04:22:07;;;;;;;11.10;6.95;;;18.10;58.50;;;;;;4958661;28;20053;-87
2023/08/30 04:24:34;;;;;;;8.18;7.28;;;18.10;58.50;;;;;;4953666;28;20070;-86
2023/08/30 04:27:01;;;;;;;8.65;7.18;;;18.10;58.50;;;;;;4958942;28;20062;-86
2023/08/30 04:29:28;;;;;;;9.40;7.15;;;18.00;58.40;;;;;;4965114;28;20066;-86
2023/08/30 04:31:56;;;;;;;10.18;7.53;;;18.10;58.50;;;;;;4954555;28;20061;-87
2023/08/30 04:34:23;;;;;;;8.20;6.97;;;18.00;58.40;;;;;;4954897;28;20142;-87
2023/08/30 04:36:52;;;;;;;9.65;7.40;;;18.10;58.40;;;;;;4955340;28;20062;-90
2023/08/30 04:39:19;;;;;;;9.95;7.00;;;18.00;58.40;;;;;;4957998;28;20046;-88
2023/08/30 04:41:46;;;;;;;8.60;6.88;;;18.00;58.30;;;;;;4955606;28;20050;-86
2023/08/30 04:44:13;;;;;;;9.63;7.32;;;18.00;58.30;;;;;;4960196;28;20046;-86
2023/08/30 04:46:41;;;;;;;9.38;7.00;;;18.00;58.30;;;;;;4955559;28;20085;-89
2023/08/30 04:49:08;;;;;;;8.27;6.45;;;18.00;58.20;;;;;;4958631;28;20050;-87
2023/08/30 04:51:36;;;;;;;9.05;7.22;;;18.00;58.20;;;;;;4955412;28;20214;-88
2023/08/30 04:54:04;;;;;;;11.07;7.88;;;17.90;58.10;;;;;;4960065;28;20059;-85
2023/08/30 04:56:32;;;;;;;10.32;8.15;;;17.90;58.10;;;;;;4960001;28;20403;-89
2023/08/30 04:58:59;;;;;;;12.48;8.10;;;17.90;58.10;;;;;;4957068;28;20414;-88
2023/08/30 05:01:26;;;;;;;8.05;7.22;;;17.90;58.10;;;;;;4958812;28;20051;-88
2023/08/30 05:03:54;;;;;;;8.48;7.00;;;17.90;58.10;;;;;;4954926;28;20062;-89
2023/08/30 05:06:21;;;;;;;10.60;8.05;;;17.90;58.10;;;;;;4954083;28;20073;-88
2023/08/30 05:08:48;;;;;;;9.45;7.20;;;17.80;58.10;;;;;;4959148;28;20059;-90
2023/08/30 05:11:17;;;;;;;9.20;7.20;;;17.80;58.10;;;;;;4958083;28;20051;-88
2023/08/30 05:13:44;;;;;;;9.90;7.60;;;17.80;58.10;;;;;;4956034;28;20506;-86
2023/08/30 05:16:11;;;;;;;7.85;7.00;;;17.80;58.10;;;;;;4955974;28;20047;-87
2023/08/30 05:18:39;;;;;;;9.77;7.15;;;17.80;58.10;;;;;;4953135;28;20061;-87
2023/08/30 05:21:06;;;;;;;9.73;8.02;;;17.70;58.10;;;;;;4956106;28;20046;-88
2023/08/30 05:23:33;;;;;;;11.38;7.80;;;17.70;58.10;;;;;;4959190;28;20173;-88
2023/08/30 05:26:01;;;;;;;10.05;7.35;;;17.70;58.20;;;;;;4958032;28;20051;-88
2023/08/30 05:28:29;;;;;;;11.18;8.80;;;17.70;58.20;;;;;;4957793;28;20062;-89
2023/08/30 05:30:57;;;;;;;11.38;8.77;;;17.70;58.20;;;;;;4956365;28;20062;-88
2023/08/30 05:33:24;;;;;;;8.02;6.72;;;17.70;58.10;;;;;;4953540;28;20538;-87
2023/08/30 05:35:51;;;;;;;10.73;7.80;;;17.60;58.10;;;;;;4954274;28;20055;-86
2023/08/30 05:38:19;;;;;;;11.93;8.02;;;17.60;58.20;;;;;;4954278;28;20066;-88
2023/08/30 05:40:46;;;;;;;14.25;7.20;;;17.60;58.20;;;;;;4955305;28;20509;-85
2023/08/30 05:43:13;;;;;;;11.70;7.55;;;17.60;58.30;;;;;;4956222;28;20403;-84
2023/08/30 05:45:42;;;;;;;9.85;7.65;;;17.60;58.40;;;;;;4957771;28;20046;-86
2023/08/30 05:48:09;;;;;;;8.38;7.40;;;17.60;58.40;;;;;;4956651;28;20063;-86
2023/08/30 05:50:36;;;;;;;9.23;7.68;;;17.60;58.50;;;;;;4955275;28;20423;-85
2023/08/30 05:53:04;;;;;;;9.70;8.15;;;17.60;58.50;;;;;;4956908;28;20388;-86
2023/08/30 05:55:32;;;;;;;9.95;7.25;;;17.50;58.50;;;;;;4953732;28;20058;-84
2023/08/30 05:57:59;;;;;;;11.88;8.75;;;17.50;58.50;;;;;;4957857;28;20057;-85
2023/08/30 06:00:26;;;;;;;10.77;8.45;;;17.60;58.60;;;;;;4952234;28;20062;-87
2023/08/30 06:02:55;;;;;;;11.10;8.43;;;17.50;58.60;;;;;;4955102;28;20529;-83
2023/08/30 06:05:22;;;;;;;12.75;9.13;;;17.50;58.70;;;;;;4955451;28;20051;-83
2023/08/30 06:07:49;;;;;;;13.05;9.32;;;17.50;58.80;;;;;;4953734;28;20053;-83
2023/08/30 06:10:17;;;;;;;15.00;9.75;;;17.50;58.80;;;;;;4956992;28;20491;-82
2023/08/30 06:12:44;;;;;;;11.45;9.32;;;17.50;58.80;;;;;;4962855;28;20058;-82
2023/08/30 06:15:11;;;;;;;13.05;9.65;;;17.50;58.90;;;;;;4960582;28;20071;-85
2023/08/30 06:17:38;;;;;;;12.38;9.60;;;17.60;59.00;;;;;;4959442;28;20054;-84
2023/08/30 06:20:08;;;;;;;11.48;9.38;;;17.60;59.10;;;;;;4960274;28;20058;-84
2023/08/30 06:22:36;;;;;;;12.23;9.70;;;17.60;59.20;;;;;;4960937;28;20054;-84
2023/08/30 06:35:12;;;;;;;11.13;9.32;;;17.60;59.40;;;;;;4978039;28;20045;-83
2023/08/30 06:37:39;;;;;;;11.88;9.48;;;17.60;59.30;;;;;;4967826;28;20452;-85
2023/08/30 06:40:08;;;;;;;13.63;10.05;;;17.60;59.30;;;;;;4966501;28;20073;-84
2023/08/30 06:42:35;;;;;;;12.85;10.32;;;17.60;59.40;;;;;;4963322;28;20111;-82
2023/08/30 06:45:04;;;;;;;11.23;8.77;;;17.60;59.50;;;;;;4967938;28;20061;-84
2023/08/30 06:47:31;;;;;;;14.57;10.32;;;17.70;59.60;;;;;;4967985;28;20055;-84
2023/08/30 06:49:59;;;;;;;11.73;9.43;;;17.70;59.60;;;;;;4965975;28;20062;-85
2023/08/30 06:52:28;;;;;;;17.75;11.30;;;17.70;59.70;;;;;;4962326;28;20061;-85
2023/08/30 06:54:55;;;;;;;12.25;9.52;;;17.70;59.70;;;;;;4967425;28;20059;-85
2023/08/30 06:57:22;;;;;;;11.35;9.02;;;17.70;59.70;;;;;;4966551;28;20051;-85
2023/08/30 06:59:49;;;;;;;12.75;9.98;;;17.70;59.70;;;;;;4967667;28;20062;-85
2023/08/30 07:02:17;;;;;;;14.18;10.70;;;17.80;59.80;;;;;;4964321;28;20363;-85
2023/08/30 07:04:44;;;;;;;16.65;10.70;;;17.80;59.90;;;;;;4963085;28;20422;-84
2023/08/30 07:07:13;;;;;;;13.23;10.85;;;17.80;59.90;;;;;;4965050;28;20050;-84
2023/08/30 07:09:42;;;;;;;13.45;10.02;;;17.80;60.10;;;;;;4966685;28;20378;-86
2023/08/30 07:12:09;;;;;;;12.30;10.00;;;17.80;60.10;;;;;;4966936;28;20054;-85
2023/08/30 07:14:37;;;;;;;13.02;10.25;;;17.80;60.20;;;;;;4963435;28;20441;-84
2023/08/30 07:17:04;;;;;;;13.02;10.85;;;17.90;60.30;;;;;;4964825;28;20113;-85
2023/08/30 07:19:32;;;;;;;17.02;12.23;;;17.90;60.30;;;;;;4963715;28;20061;-86
2023/08/30 07:21:59;;;;;;;15.90;12.27;;;17.90;60.50;;;;;;4964951;28;20073;-85
2023/08/30 07:24:26;;;;;;;14.75;11.82;;;18.00;60.70;;;;;;4968727;28;20055;-86
2023/08/30 07:26:55;;;;;;;14.00;10.93;;;18.00;60.80;;;;;;4964351;28;20487;-86
2023/08/30 07:29:22;;;;;;;16.55;11.35;;;18.00;60.80;;;;;;4959306;28;20600;-87
2023/08/30 07:31:53;;;;;;;16.27;12.05;;;18.00;60.90;;;;;;4956538;28;20066;-86
2023/08/30 07:34:20;;;;;;;14.07;10.63;;;18.10;61.10;;;;;;4960125;28;20065;-86
2023/08/30 07:36:47;;;;;;;14.52;10.55;;;18.10;61.10;;;;;;4962237;28;20055;-85
2023/08/30 07:39:15;;;;;;;11.13;9.20;;;18.20;61.20;;;;;;4963112;28;20059;-86
2023/08/30 07:41:42;;;;;;;12.27;10.02;;;18.20;61.20;;;;;;4963579;28;20065;-87
2023/08/30 07:44:11;;;;;;;14.93;10.30;;;18.20;61.20;;;;;;4958880;28;20589;-86
2023/08/30 07:46:38;;;;;;;12.55;9.35;;;18.30;61.30;;;;;;4958835;28;20046;-84
2023/08/30 07:49:05;;;;;;;11.75;9.45;;;18.40;61.30;;;;;;4960428;28;20054;-85
2023/08/30 07:51:33;;;;;;;11.02;8.48;;;18.40;61.40;;;;;;4955892;28;20054;-85
2023/08/30 07:54:00;;;;;;;12.23;8.68;;;18.50;61.30;;;;;;4963952;28;20720;-88
2023/08/30 07:56:29;;;;;;;11.20;8.75;;;18.50;61.20;;;;;;4962294;28;20062;-86
2023/08/30 07:58:57;;;;;;;10.75;8.25;;;18.50;61.10;;;;;;4962777;28;20066;-90
2023/08/30 08:01:26;;;;;;;17.17;9.77;;;18.60;61.10;;;;;;4962109;28;20069;-84
2023/08/30 08:03:53;;;;;;;10.27;7.75;;;18.60;61.20;;;;;;4960085;28;20071;-84
2023/08/30 08:06:20;;;;;;;10.35;7.63;;;18.70;61.10;;;;;;4958332;28;20051;-84
2023/08/30 08:08:48;;;;;;;11.75;7.72;;;18.80;61.00;;;;;;4959869;28;20495;-84
2023/08/30 08:11:15;;;;;;;9.65;7.15;;;18.80;60.90;;;;;;4961845;28;20384;-85
2023/08/30 08:13:42;;;;;;;10.27;7.32;;;18.90;61.00;;;;;;4962450;28;20169;-85
2023/08/30 08:16:10;;;;;;;8.80;6.40;;;18.90;61.00;;;;;;4959779;28;20050;-85
2023/08/30 08:18:38;;;;;;;10.48;7.20;;;19.00;60.70;;;;;;4962310;28;20376;-85
2023/08/30 08:21:06;;;;;;;8.57;5.55;;;19.00;59.60;;;;;;4959427;28;20058;-88
2023/08/30 08:23:33;;;;;;;8.35;5.70;;;19.00;59.00;;;;;;4961328;28;20065;-86
2023/08/30 08:26:02;;;;;;;7.38;5.25;;;19.10;58.80;;;;;;4960506;28;20062;-85
2023/08/30 08:28:29;;;;;;;7.15;5.30;;;19.10;58.50;;;;;;4961622;28;20430;-84
2023/08/30 08:30:56;;;;;;;8.13;5.18;;;19.20;58.40;;;;;;4961803;28;20067;-84
2023/08/30 08:33:24;;;;;;;7.47;4.47;;;19.20;58.00;;;;;;4962771;28;20522;-84
2023/08/30 08:35:52;;;;;;;6.65;5.28;;;19.30;57.70;;;;;;4960084;28;20058;-86
2023/08/30 08:38:20;;;;;;;6.40;4.70;;;19.30;57.60;;;;;;4961103;28;20145;-84
2023/08/30 08:40:47;;;;;;;7.22;4.72;;;19.40;57.60;;;;;;4961446;28;20051;-84
2023/08/30 08:43:15;;;;;;;8.55;4.05;;;19.50;57.60;;;;;;4961737;28;20059;-84
2023/08/30 08:45:43;;;;;;;6.15;4.25;;;19.50;57.40;;;;;;4966716;28;20058;-86
2023/08/30 08:48:11;;;;;;;30.20;17.83;;;19.60;56.90;;;;;;4961790;28;20055;-84
2023/08/30 08:50:39;;;;;;;73.05;39.88;;;19.60;56.70;;;;;;4959806;28;20066;-84
2023/08/30 08:53:08;;;;;;;15.55;10.13;;;19.60;56.50;;;;;;4962117;28;20074;-83
2023/08/30 08:55:37;;;;;;;6.38;4.07;;;19.60;55.80;;;;;;4960916;28;20067;-84
2023/08/30 08:58:05;;;;;;;6.82;3.05;;;19.70;55.70;;;;;;4960929;28;20057;-86
2023/08/30 09:00:32;;;;;;;4.30;2.65;;;19.70;55.60;;;;;;4961378;28;20066;-85
2023/08/30 09:03:00;;;;;;;5.03;2.85;;;19.80;56.00;;;;;;4962259;28;20420;-84
2023/08/30 09:05:28;;;;;;;5.07;3.17;;;19.80;55.30;;;;;;4956644;28;20522;-85
2023/08/30 09:07:56;;;;;;;4.40;2.83;;;19.90;55.00;;;;;;4963386;28;20058;-85
2023/08/30 09:10:24;;;;;;;5.88;2.88;;;19.90;54.80;;;;;;4961614;28;20081;-84
2023/08/30 09:12:52;;;;;;;4.22;2.70;;;20.00;54.40;;;;;;4960095;28;20400;-85
2023/08/30 09:15:19;;;;;;;4.22;2.70;;;20.00;54.30;;;;;;4960588;28;20061;-84
2023/08/30 09:17:46;;;;;;;4.30;2.65;;;20.00;54.30;;;;;;4961864;28;20055;-83
2023/08/30 09:20:15;;;;;;;3.75;2.60;;;20.00;54.10;;;;;;4952366;28;20062;-84
2023/08/30 09:22:43;;;;;;;5.40;3.05;;;20.10;53.90;;;;;;4962068;28;20062;-83
2023/08/30 09:25:12;;;;;;;8.05;3.80;;;20.20;53.80;;;;;;4957147;28;20058;-84
2023/08/30 09:27:41;;;;;;;8.55;3.42;;;20.20;53.60;;;;;;4961634;28;20066;-85
2023/08/30 09:30:10;;;;;;;6.85;3.15;;;20.20;53.70;;;;;;4960780;28;20070;-83
2023/08/30 09:32:42;;;;;;;3.55;2.40;;;20.30;53.60;;;;;;4960445;28;20054;-84
2023/08/30 09:35:11;;;;;;;3.50;2.58;;;20.30;53.70;;;;;;4954014;28;20066;-84
2023/08/30 09:37:38;;;;;;;5.72;3.63;;;20.40;53.90;;;;;;4961458;28;20069;-84
2023/08/30 09:40:06;;;;;;;4.55;2.60;;;20.40;54.00;;;;;;4953102;28;20051;-83
2023/08/30 09:42:34;;;;;;;5.00;2.85;;;20.50;53.70;;;;;;4961381;28;20054;-85
2023/08/30 09:45:05;;;;;;;6.30;3.17;;;20.50;53.70;;;;;;4961219;28;20055;-84
2023/08/30 09:47:32;;;;;;;5.00;2.63;;;20.50;53.50;;;;;;4959200;28;20046;-85
2023/08/30 09:50:01;;;;;;;3.92;2.50;;;20.60;53.20;;;;;;4957307;28;20069;-84
2023/08/30 09:52:30;;;;;;;5.80;3.10;;;20.60;53.30;;;;;;4960979;28;20066;-85
2023/08/30 09:54:58;;;;;;;7.55;3.10;;;20.70;53.50;;;;;;4953570;28;20055;-84
2023/08/30 09:57:26;;;;;;;5.93;3.20;;;20.70;53.70;;;;;;4956261;28;20043;-84
2023/08/30 09:59:54;;;;;;;7.55;3.50;;;20.80;53.70;;;;;;4956580;28;20499;-86
2023/08/30 10:02:24;;;;;;;5.20;3.22;;;20.90;53.90;;;;;;4963116;28;20061;-87
2023/08/30 10:04:51;;;;;;;5.53;3.00;;;21.00;53.70;;;;;;4955130;28;20055;-85
2023/08/30 10:07:21;;;;;;;4.28;2.58;;;21.10;53.60;;;;;;4952478;28;20054;-85
2023/08/30 10:09:52;;;;;;;4.63;2.80;;;21.10;53.40;;;;;;4956899;28;20360;-84
2023/08/30 10:12:21;;;;;;;6.72;3.03;;;21.20;53.20;;;;;;4954407;28;20063;-83
2023/08/30 10:14:48;;;;;;;5.80;2.70;;;21.30;53.50;;;;;;4953849;28;20058;-84
2023/08/30 10:17:22;;;;;;;6.03;2.67;;;21.40;52.90;;;;;;4955715;28;20081;-85
2023/08/30 10:19:53;;;;;;;4.68;2.30;;;21.40;52.40;;;;;;4951782;28;20059;-85
2023/08/30 10:22:22;;;;;;;3.83;2.60;;;21.50;52.20;;;;;;4958059;28;20066;-87
2023/08/30 10:24:52;;;;;;;4.00;2.38;;;21.50;52.20;;;;;;4955219;28;20055;-85
2023/08/30 10:27:21;;;;;;;6.20;2.70;;;21.60;51.80;;;;;;4957795;28;20069;-87
2023/08/30 10:29:50;;;;;;;4.70;2.22;;;21.60;51.90;;;;;;4957573;28;20051;-84
2023/08/30 10:32:21;;;;;;;7.03;2.60;;;21.70;51.80;;;;;;4951653;28;20058;-86
2023/08/30 10:34:51;;;;;;;4.07;2.35;;;21.70;51.70;;;;;;4956521;28;20058;-87
2023/08/30 10:37:24;;;;;;;4.13;2.50;;;21.70;51.50;;;;;;4953096;28;20054;-86
2023/08/30 10:39:52;;;;;;;7.45;2.00;;;21.80;50.70;;;;;;4952664;28;20050;-86
2023/08/30 10:42:23;;;;;;;5.90;2.92;;;21.80;50.40;;;;;;4954348;28;20061;-87
2023/08/30 10:44:51;;;;;;;6.22;2.72;;;21.80;50.00;;;;;;4957217;28;20526;-87
2023/08/30 10:47:20;;;;;;;5.82;2.50;;;21.80;49.80;;;;;;4957346;28;20534;-86
2023/08/30 10:49:49;;;;;;;5.40;2.85;;;21.80;49.20;;;;;;4954747;28;20058;-87
2023/08/30 10:52:17;;;;;;;5.05;2.58;;;21.80;49.20;;;;;;4955942;28;20407;-87
2023/08/30 10:54:44;;;;;;;3.90;2.35;;;21.80;49.00;;;;;;4951414;28;20070;-87
2023/08/30 10:57:15;;;;;;;4.20;2.50;;;21.70;48.70;;;;;;4957674;28;20058;-87
2023/08/30 11:00:04;;;;;;;4.38;2.53;;;21.70;48.90;;;;;;4957180;28;20696;-87
2023/08/30 11:02:32;;;;;;;3.83;2.20;;;21.70;48.80;;;;;;4961273;28;20059;-85
2023/08/30 11:05:02;;;;;;;6.22;2.60;;;21.70;49.10;;;;;;4953498;28;20122;-87
2023/08/30 11:07:29;;;;;;;3.33;2.42;;;21.60;49.30;;;;;;4960096;28;20058;-88
2023/08/30 11:09:57;;;;;;;6.40;3.00;;;21.60;49.80;;;;;;4959660;28;20054;-86
2023/08/30 11:12:25;;;;;;;4.97;2.63;;;21.60;50.30;;;;;;4958809;28;20050;-86
2023/08/30 11:14:54;;;;;;;4.03;2.75;;;21.60;50.60;;;;;;4957544;28;20061;-90
2023/08/30 11:17:21;;;;;;;3.97;2.78;;;21.60;50.90;;;;;;4960669;28;20062;-87
2023/08/30 11:19:51;;;;;;;3.70;2.70;;;21.60;50.90;;;;;;4960100;28;20364;-87
2023/08/30 11:22:20;;;;;;;4.47;2.70;;;21.60;51.30;;;;;;4956936;28;20500;-87
2023/08/30 11:24:49;;;;;;;4.15;2.67;;;21.60;51.60;;;;;;4958730;28;20068;-86
2023/08/30 11:27:18;;;;;;;7.60;3.00;;;21.50;51.80;;;;;;4957283;28;20085;-87
2023/08/30 11:29:45;;;;;;;3.15;2.55;;;21.60;52.10;;;;;;4966933;28;20046;-88
2023/08/30 11:32:13;;;;;;;9.45;3.30;;;21.60;52.30;;;;;;4956781;28;20462;-85
2023/08/30 11:34:40;;;;;;;7.32;2.70;;;21.70;52.30;;;;;;4959323;28;20063;-85
2023/08/30 11:37:09;;;;;;;3.80;2.90;;;21.70;52.20;;;;;;4958434;28;20055;-84
2023/08/30 11:39:39;;;;;;;2.95;2.28;;;21.70;52.00;;;;;;4968395;28;20379;-85
2023/08/30 11:42:06;;;;;;;4.32;2.70;;;21.70;52.00;;;;;;4957246;28;20074;-83
2023/08/30 11:44:34;;;;;;;3.55;2.40;;;21.80;52.00;;;;;;4956870;28;20051;-85
2023/08/30 11:47:02;;;;;;;7.60;2.70;;;21.80;52.00;;;;;;4957395;28;20066;-89
2023/08/30 11:49:29;;;;;;;3.70;2.08;;;21.90;52.10;;;;;;4952686;28;20062;-84
2023/08/30 11:51:58;;;;;;;4.05;2.50;;;21.90;52.20;;;;;;4960303;28;20058;-86
2023/08/30 11:54:25;;;;;;;4.55;2.60;;;21.90;52.20;;;;;;4960367;28;20411;-86
2023/08/30 11:56:54;;;;;;;5.10;2.53;;;21.90;52.10;;;;;;4957331;28;20059;-84
2023/08/30 11:59:22;;;;;;;9.27;3.00;;;21.90;51.80;;;;;;4954585;28;20053;-84
2023/08/30 12:01:50;;;;;;;6.53;2.53;;;22.00;51.90;;;;;;4959580;28;20416;-84
2023/08/30 12:04:18;;;;;;;4.70;2.17;;;21.90;52.10;;;;;;4952108;28;20042;-83
2023/08/30 12:06:53;;;;;;;4.60;2.58;;;22.00;52.00;;;;;;4957444;28;20054;-85
2023/08/30 12:09:21;;;;;;;2.13;1.92;;;22.00;51.80;;;;;;4958584;28;20070;-87
2023/08/30 12:11:49;;;;;;;4.00;2.47;;;22.00;51.80;;;;;;4958185;28;20492;-85
2023/08/30 12:14:18;;;;;;;7.38;2.47;;;22.00;51.90;;;;;;4953107;28;20058;-85
2023/08/30 12:16:46;;;;;;;4.18;2.35;;;22.00;52.00;;;;;;4960279;28;20047;-85
2023/08/30 12:19:17;;;;;;;3.47;2.33;;;22.00;52.20;;;;;;4960771;28;20510;-85
2023/08/30 12:21:45;;;;;;;3.42;2.38;;;21.90;51.90;;;;;;4955015;28;20054;-85
2023/08/30 12:24:12;;;;;;;5.95;2.78;;;21.90;52.40;;;;;;4960252;28;20398;-86
2023/08/30 12:26:40;;;;;;;6.13;2.92;;;21.80;52.90;;;;;;4956183;28;20443;-85
2023/08/30 12:29:07;;;;;;;4.25;2.40;;;21.70;53.30;;;;;;4959683;28;20058;-86
2023/08/30 12:34:58;;;;;;;5.32;2.58;;;21.30;54.00;;;;;;4959832;28;20049;-83
2023/08/30 12:37:25;;;;;;;5.80;3.05;;;21.00;54.90;;;;;;4961403;28;20149;-84
2023/08/30 12:39:52;;;;;;;5.22;2.85;;;20.80;55.60;;;;;;4958325;28;20414;-84
2023/08/30 12:42:20;;;;;;;4.90;2.65;;;20.50;56.10;;;;;;4955399;28;20415;-87
2023/08/30 12:44:47;;;;;;;4.53;2.80;;;20.40;56.60;;;;;;4957423;28;20051;-87
2023/08/30 12:47:14;;;;;;;4.47;2.60;;;20.20;57.30;;;;;;4961493;28;20066;-86
2023/08/30 12:49:42;;;;;;;6.75;2.92;;;20.00;57.70;;;;;;4960860;28;20872;-87
2023/08/30 12:52:10;;;;;;;4.28;2.60;;;19.90;58.10;;;;;;4960852;28;20062;-87
2023/08/30 12:54:38;;;;;;;5.07;2.92;;;19.70;58.60;;;;;;4961731;28;20046;-87
2023/08/30 12:57:05;;;;;;;4.85;3.00;;;19.60;59.00;;;;;;4960824;28;20066;-87
2023/08/30 12:59:33;;;;;;;5.97;2.95;;;19.50;59.40;;;;;;4958228;28;20488;-86
2023/08/30 13:02:00;;;;;;;5.90;2.60;;;19.40;59.70;;;;;;4961894;28;20058;-86